Time;durP1;ratioP1;P1;durP2;ratioP2;P2;SDS_P1;SDS_P2;PMS_P1;PMS_P2;Temp;Humidity;BMP_temperature;BMP_pressure;BME280_temperature;BME280_humidity;BME280_pressure;Samples;Min_cycle;Max_cycle;Signal;HPM_P1;HPM_P2
2022/11/22 00:00:07;;;;;;;0.80;0.50;;;6.80;99.90;;;;;;5079140;28;20938;-60
2022/11/22 00:02:34;;;;;;;1.00;0.40;;;6.80;99.90;;;;;;5079365;28;20485;-60
2022/11/22 00:05:02;;;;;;;0.87;0.40;;;6.90;99.90;;;;;;5077810;28;20544;-60
2022/11/22 00:07:29;;;;;;;1.07;0.40;;;6.80;99.90;;;;;;5078761;28;20468;-61
2022/11/22 00:09:57;;;;;;;1.20;0.50;;;6.90;99.90;;;;;;5077960;28;20500;-60
2022/11/22 00:12:24;;;;;;;1.33;0.50;;;7.00;99.90;;;;;;5077289;28;20583;-61
2022/11/22 00:14:51;;;;;;;1.93;0.30;;;7.00;99.90;;;;;;5076561;28;20497;-61
2022/11/22 00:17:18;;;;;;;0.63;0.40;;;7.00;99.90;;;;;;5077840;28;20529;-61
2022/11/22 00:19:48;;;;;;;0.80;0.40;;;7.10;99.90;;;;;;5097430;28;20895;-61
2022/11/22 00:22:15;;;;;;;1.20;0.40;;;7.00;99.90;;;;;;5118829;28;21144;-60
2022/11/22 00:24:42;;;;;;;0.90;0.50;;;7.00;99.90;;;;;;5119362;28;20468;-60
2022/11/22 00:27:11;;;;;;;1.40;0.50;;;6.90;99.90;;;;;;5119403;28;20456;-60
2022/11/22 00:29:38;;;;;;;1.67;0.43;;;6.80;99.90;;;;;;5116132;28;20555;-61
2022/11/22 00:32:05;;;;;;;0.60;0.40;;;6.80;99.90;;;;;;5119153;28;20531;-60
2022/11/22 00:34:31;;;;;;;0.50;0.33;;;6.90;99.90;;;;;;5119081;28;20531;-60
2022/11/22 00:36:58;;;;;;;0.70;0.40;;;7.00;99.90;;;;;;5119295;28;20437;-60
2022/11/22 00:39:25;;;;;;;0.70;0.40;;;7.10;99.90;;;;;;5114065;28;20992;-60
2022/11/22 00:41:52;;;;;;;0.63;0.40;;;7.20;99.90;;;;;;5118472;28;20511;-60
2022/11/22 00:44:20;;;;;;;0.60;0.40;;;7.20;99.90;;;;;;5117795;28;20539;-60
2022/11/22 00:46:47;;;;;;;2.60;0.43;;;7.20;99.90;;;;;;5116745;28;20485;-60
2022/11/22 00:49:14;;;;;;;1.10;0.30;;;7.20;99.90;;;;;;5117656;28;20452;-60
2022/11/22 00:51:41;;;;;;;1.43;0.40;;;7.20;99.90;;;;;;5116643;28;20536;-60
2022/11/22 00:54:08;;;;;;;0.63;0.40;;;7.20;99.90;;;;;;5117887;28;20892;-60
2022/11/22 00:56:35;;;;;;;1.00;0.40;;;7.30;99.90;;;;;;5119066;28;20543;-61
2022/11/22 00:59:02;;;;;;;0.63;0.40;;;7.30;99.90;;;;;;5119236;28;20879;-61
2022/11/22 01:01:30;;;;;;;1.03;0.40;;;7.30;99.90;;;;;;5114953;28;20495;-61
2022/11/22 01:03:57;;;;;;;0.63;0.40;;;7.30;99.90;;;;;;5118694;28;20463;-60
2022/11/22 01:06:24;;;;;;;0.80;0.50;;;7.30;99.90;;;;;;5118149;28;20959;-61
2022/11/22 01:08:51;;;;;;;0.73;0.40;;;7.30;99.90;;;;;;5118686;28;20460;-60
2022/11/22 01:11:19;;;;;;;1.17;0.40;;;7.30;99.90;;;;;;5117724;28;20460;-61
2022/11/22 01:13:46;;;;;;;0.70;0.40;;;7.20;99.90;;;;;;5115812;28;20465;-61
2022/11/22 01:16:16;;;;;;;0.80;0.40;;;7.20;99.90;;;;;;5117053;28;20952;-60
2022/11/22 01:18:44;;;;;;;0.60;0.30;;;7.10;99.90;;;;;;5118368;28;20484;-60
2022/11/22 01:21:12;;;;;;;1.20;0.40;;;7.00;99.90;;;;;;5117850;28;20513;-60
2022/11/22 01:23:39;;;;;;;0.90;0.30;;;7.10;99.90;;;;;;5114924;28;20481;-61
2022/11/22 01:26:07;;;;;;;2.80;0.50;;;7.10;99.90;;;;;;5118590;28;20484;-60
2022/11/22 01:28:33;;;;;;;0.60;0.40;;;7.20;99.90;;;;;;5118888;28;20543;-60
2022/11/22 01:31:00;;;;;;;1.10;0.47;;;7.10;99.90;;;;;;5118285;28;20488;-60
2022/11/22 01:33:28;;;;;;;0.93;0.40;;;7.10;99.90;;;;;;5101065;28;20498;-60
2022/11/22 01:35:57;;;;;;;0.70;0.40;;;7.00;99.90;;;;;;5095715;28;20948;-61
2022/11/22 01:38:24;;;;;;;0.80;0.40;;;7.00;99.90;;;;;;5099109;28;20469;-60
2022/11/22 01:40:51;;;;;;;0.77;0.43;;;6.90;99.90;;;;;;5097017;28;20473;-61
2022/11/22 01:43:19;;;;;;;1.63;0.50;;;7.00;99.90;;;;;;5096229;28;20584;-60
2022/11/22 01:45:52;;;;;;;0.60;0.37;;;7.00;99.90;;;;;;5097178;28;20540;-61
2022/11/22 01:48:33;;;;;;;1.37;0.40;;;7.00;99.90;;;;;;5105498;28;20551;-61
2022/11/22 01:51:06;;;;;;;0.60;0.50;;;7.00;99.90;;;;;;5117777;28;20484;-60
2022/11/22 01:53:36;;;;;;;0.60;0.40;;;7.00;99.90;;;;;;5116840;28;20506;-61
2022/11/22 01:56:07;;;;;;;0.60;0.40;;;7.00;99.90;;;;;;5116733;28;20436;-60
2022/11/22 01:58:35;;;;;;;0.60;0.40;;;7.00;99.90;;;;;;5111790;28;20492;-60
2022/11/22 02:01:02;;;;;;;3.10;0.40;;;7.10;99.90;;;;;;5115340;28;20480;-60
2022/11/22 02:03:31;;;;;;;2.00;0.43;;;7.10;99.90;;;;;;5115969;28;20579;-60
2022/11/22 02:05:59;;;;;;;0.77;0.40;;;7.10;99.90;;;;;;5115012;28;20448;-61
2022/11/22 02:08:32;;;;;;;0.67;0.30;;;7.10;99.90;;;;;;5116419;28;20551;-60
2022/11/22 02:11:01;;;;;;;0.77;0.40;;;7.10;99.90;;;;;;5116939;28;20536;-61
2022/11/22 02:13:31;;;;;;;0.70;0.40;;;7.10;99.90;;;;;;5112888;28;20753;-60
2022/11/22 02:15:58;;;;;;;0.60;0.30;;;7.20;99.90;;;;;;5117557;28;20883;-60
2022/11/22 02:18:25;;;;;;;1.00;0.40;;;7.20;99.90;;;;;;5117098;28;20861;-60
2022/11/22 02:20:53;;;;;;;2.80;0.40;;;7.20;99.90;;;;;;5117097;28;20502;-60
2022/11/22 02:23:26;;;;;;;0.60;0.30;;;7.20;99.90;;;;;;5110051;28;21038;-60
2022/11/22 02:25:55;;;;;;;1.10;0.43;;;7.10;99.90;;;;;;5117008;28;20804;-60
2022/11/22 02:28:23;;;;;;;0.60;0.40;;;7.10;99.90;;;;;;5117411;28;20548;-60
2022/11/22 02:30:50;;;;;;;1.90;0.40;;;7.00;99.90;;;;;;5117331;28;20895;-60
2022/11/22 02:33:17;;;;;;;1.33;0.40;;;7.00;99.90;;;;;;5114767;28;20492;-60
2022/11/22 02:35:45;;;;;;;0.60;0.30;;;7.00;99.90;;;;;;5117108;28;20456;-61
2022/11/22 02:38:15;;;;;;;1.60;0.30;;;7.00;99.90;;;;;;5113933;28;20492;-60
2022/11/22 02:40:46;;;;;;;0.83;0.40;;;7.00;99.90;;;;;;5116354;28;20889;-61
2022/11/22 02:43:17;;;;;;;0.57;0.40;;;7.00;99.90;;;;;;5116722;28;20567;-60
2022/11/22 02:45:45;;;;;;;1.20;0.30;;;7.00;99.90;;;;;;5115684;28;20535;-60
2022/11/22 02:48:13;;;;;;;1.90;0.40;;;7.00;99.90;;;;;;5115532;28;20491;-60
2022/11/22 02:50:40;;;;;;;0.60;0.37;;;7.00;99.90;;;;;;5115926;28;20468;-60
2022/11/22 02:53:09;;;;;;;1.63;0.40;;;6.90;99.90;;;;;;5116281;28;20535;-60
2022/11/22 02:55:36;;;;;;;2.77;0.40;;;6.90;99.90;;;;;;5115289;28;20806;-60
2022/11/22 02:58:06;;;;;;;0.80;0.40;;;6.90;99.90;;;;;;5116674;28;20481;-60
2022/11/22 03:00:36;;;;;;;1.83;0.40;;;6.80;99.90;;;;;;5116585;28;20804;-60
2022/11/22 03:03:03;;;;;;;0.50;0.30;;;6.80;99.90;;;;;;5116776;28;20526;-60
2022/11/22 03:05:29;;;;;;;1.10;0.37;;;6.80;99.90;;;;;;5116570;28;20452;-60
2022/11/22 03:07:56;;;;;;;0.87;0.30;;;6.80;99.90;;;;;;5116917;28;20491;-60
2022/11/22 03:10:23;;;;;;;1.07;0.40;;;6.80;99.90;;;;;;5116296;28;20535;-60
2022/11/22 03:12:50;;;;;;;0.67;0.40;;;6.80;99.90;;;;;;5114548;28;20480;-60
2022/11/22 03:15:18;;;;;;;0.60;0.40;;;6.80;99.90;;;;;;5114631;28;20536;-60
2022/11/22 03:17:46;;;;;;;0.80;0.40;;;6.80;99.90;;;;;;5114904;28;20733;-60
2022/11/22 03:20:13;;;;;;;0.50;0.40;;;6.80;99.90;;;;;;5114953;28;20771;-60
2022/11/22 03:22:40;;;;;;;0.63;0.30;;;6.80;99.90;;;;;;5114589;28;20579;-60
2022/11/22 03:25:07;;;;;;;0.50;0.30;;;6.80;99.90;;;;;;5114782;28;20978;-60
2022/11/22 03:27:34;;;;;;;0.90;0.40;;;6.80;99.90;;;;;;5116082;28;20903;-60
2022/11/22 03:30:01;;;;;;;1.00;0.30;;;6.70;99.90;;;;;;5114788;28;20445;-60
2022/11/22 03:32:28;;;;;;;0.60;0.30;;;6.60;99.90;;;;;;5115452;28;20484;-60
2022/11/22 03:34:56;;;;;;;0.60;0.30;;;6.60;99.90;;;;;;5115607;28;20488;-60
2022/11/22 03:37:23;;;;;;;0.73;0.40;;;6.60;99.90;;;;;;5116406;28;20453;-60
2022/11/22 03:39:50;;;;;;;0.87;0.30;;;6.70;99.90;;;;;;5116503;28;20484;-60
2022/11/22 03:42:17;;;;;;;0.77;0.30;;;6.70;99.90;;;;;;5116342;28;20527;-60
2022/11/22 03:44:44;;;;;;;1.00;0.30;;;6.70;99.90;;;;;;5116551;28;20449;-60
2022/11/22 03:47:11;;;;;;;0.60;0.30;;;6.70;99.90;;;;;;5116211;28;20853;-60
2022/11/22 03:49:38;;;;;;;1.43;0.47;;;6.70;99.90;;;;;;5116523;28;20449;-60
2022/11/22 03:52:06;;;;;;;0.60;0.30;;;6.70;99.90;;;;;;5116358;28;20480;-59
2022/11/22 03:54:33;;;;;;;1.13;0.40;;;6.80;99.90;;;;;;5116004;28;20444;-60
2022/11/22 03:57:00;;;;;;;0.80;0.30;;;6.80;99.90;;;;;;5115928;28;20817;-60
2022/11/22 03:59:27;;;;;;;0.90;0.40;;;6.80;99.90;;;;;;5115936;28;20506;-60
2022/11/22 04:01:54;;;;;;;0.90;0.40;;;6.80;99.90;;;;;;5115914;28;20449;-60
2022/11/22 04:04:21;;;;;;;0.50;0.30;;;6.80;99.90;;;;;;5116172;28;20537;-60
2022/11/22 04:06:47;;;;;;;1.53;0.40;;;6.80;99.90;;;;;;5119006;28;20934;-60
2022/11/22 04:09:16;;;;;;;0.40;0.30;;;6.80;99.90;;;;;;5120146;28;20926;-60
2022/11/22 04:11:42;;;;;;;1.00;0.40;;;6.80;99.90;;;;;;5120081;28;20547;-60
2022/11/22 04:16:56;;;;;;;0.87;0.40;;;6.70;99.90;;;;;;5119455;28;20715;-60
2022/11/22 04:19:23;;;;;;;0.83;0.43;;;6.80;99.90;;;;;;5119541;28;20503;-60
2022/11/22 04:21:48;;;;;;;0.90;0.40;;;6.80;99.90;;;;;;5119817;28;20900;-60
2022/11/22 04:27:01;;;;;;;0.73;0.40;;;6.90;99.90;;;;;;5119380;28;20420;-60
2022/11/22 04:29:28;;;;;;;1.00;0.40;;;7.00;99.90;;;;;;5119342;28;20555;-60
2022/11/22 04:34:39;;;;;;;0.50;0.27;;;7.10;99.90;;;;;;5118352;28;20416;-60
2022/11/22 04:37:06;;;;;;;0.70;0.30;;;7.10;99.90;;;;;;5118842;28;20539;-60
2022/11/22 04:39:34;;;;;;;1.47;0.30;;;7.10;99.90;;;;;;5118647;28;20445;-61
2022/11/22 04:44:46;;;;;;;0.40;0.20;;;7.20;99.90;;;;;;5119011;28;20412;-60
2022/11/22 04:47:57;;;;;;;0.63;0.30;;;7.10;99.90;;;;;;5116974;28;20541;-59
2022/11/22 04:52:52;;;;;;;1.83;0.40;;;7.10;99.90;;;;;;5118262;28;20859;-60
2022/11/22 04:52:54;;;;;;;0.50;0.30;;;7.10;99.90;;;;;;5118896;28;20725;-59
2022/11/22 04:55:23;;;;;;;0.57;0.30;;;7.10;99.90;;;;;;5118227;28;20437;-59
2022/11/22 04:57:50;;;;;;;0.60;0.30;;;7.10;99.90;;;;;;5117606;28;20551;-60
2022/11/22 05:00:18;;;;;;;0.40;0.30;;;7.10;99.90;;;;;;5117496;28;20484;-60
2022/11/22 05:02:44;;;;;;;0.77;0.30;;;7.10;99.90;;;;;;5115450;28;20480;-60
2022/11/22 05:05:11;;;;;;;1.13;0.30;;;7.10;99.90;;;;;;5118995;28;20560;-59
2022/11/22 05:07:38;;;;;;;0.40;0.20;;;7.10;99.90;;;;;;5118611;28;20547;-60
2022/11/22 05:10:05;;;;;;;0.53;0.30;;;7.00;99.90;;;;;;5115232;28;20499;-59
2022/11/22 05:12:34;;;;;;;0.73;0.30;;;6.90;99.90;;;;;;5116151;28;20538;-60
2022/11/22 05:15:01;;;;;;;2.10;0.40;;;6.80;99.90;;;;;;5117254;28;20808;-60
2022/11/22 05:17:27;;;;;;;1.00;0.30;;;6.80;99.90;;;;;;5117031;28;20547;-60
2022/11/22 05:19:54;;;;;;;0.40;0.30;;;6.70;99.90;;;;;;5117366;28;20559;-60
2022/11/22 05:23:53;;;;;;;0.50;0.30;;;6.70;99.90;;;;;;5118235;28;20510;-60
2022/11/22 05:25:08;;;;;;;1.43;0.30;;;6.60;99.90;;;;;;5118376;28;20734;-60
2022/11/22 05:27:36;;;;;;;0.50;0.30;;;6.50;99.90;;;;;;5117477;28;20735;-60
2022/11/22 05:30:04;;;;;;;2.13;0.40;;;6.50;99.90;;;;;;5106744;28;20492;-60
2022/11/22 05:32:32;;;;;;;1.23;0.30;;;6.60;99.90;;;;;;5118385;28;20884;-60
2022/11/22 05:34:59;;;;;;;0.50;0.30;;;6.50;99.90;;;;;;5118345;28;20480;-60
2022/11/22 05:37:26;;;;;;;1.33;0.30;;;6.50;99.90;;;;;;5117851;28;20769;-60
2022/11/22 05:39:53;;;;;;;0.60;0.40;;;6.50;99.90;;;;;;5114599;28;20456;-60
2022/11/22 05:42:20;;;;;;;1.20;0.30;;;6.60;99.90;;;;;;5116540;28;20863;-60
2022/11/22 05:44:48;;;;;;;0.53;0.40;;;6.70;99.90;;;;;;5117297;28;20515;-60
2022/11/22 05:47:15;;;;;;;1.00;0.57;;;6.70;99.90;;;;;;5115910;28;20532;-61
2022/11/22 05:49:44;;;;;;;0.70;0.40;;;6.70;99.90;;;;;;5115373;28;20547;-60
2022/11/22 05:52:12;;;;;;;0.83;0.40;;;6.70;99.90;;;;;;5116072;28;20445;-59
2022/11/22 05:54:38;;;;;;;0.83;0.40;;;6.80;99.90;;;;;;5116625;28;20494;-59
2022/11/22 05:57:05;;;;;;;1.30;0.37;;;6.80;99.90;;;;;;5115015;28;20460;-58
2022/11/22 05:59:32;;;;;;;1.57;0.37;;;6.80;99.90;;;;;;5116142;28;20445;-59
2022/11/22 06:02:00;;;;;;;0.80;0.30;;;6.80;99.90;;;;;;5117324;28;20451;-58
2022/11/22 06:04:27;;;;;;;1.57;0.40;;;6.80;99.90;;;;;;5116488;28;20479;-59
2022/11/22 06:06:54;;;;;;;0.80;0.47;;;6.70;99.90;;;;;;5111996;28;20464;-57
2022/11/22 06:09:21;;;;;;;0.77;0.30;;;6.70;99.90;;;;;;5116255;28;20548;-58
2022/11/22 06:11:48;;;;;;;0.60;0.20;;;6.80;99.90;;;;;;5115913;28;20445;-58
2022/11/22 06:14:15;;;;;;;0.50;0.30;;;6.80;99.90;;;;;;5114940;28;20469;-57
2022/11/22 06:16:42;;;;;;;0.73;0.30;;;6.80;99.90;;;;;;5115357;28;20437;-56
2022/11/22 06:19:11;;;;;;;1.17;0.30;;;6.80;99.90;;;;;;5112704;28;20489;-58
2022/11/22 06:21:38;;;;;;;0.80;0.47;;;6.80;99.90;;;;;;5116973;28;20445;-58
2022/11/22 06:24:06;;;;;;;0.83;0.40;;;6.90;99.90;;;;;;5116769;28;20579;-58
2022/11/22 06:26:33;;;;;;;1.83;0.37;;;6.80;99.90;;;;;;5115112;28;20536;-58
2022/11/22 06:29:00;;;;;;;0.80;0.40;;;6.80;99.90;;;;;;5112814;28;20453;-58
2022/11/22 06:31:27;;;;;;;1.37;0.40;;;6.80;99.90;;;;;;5106209;28;20483;-61
2022/11/22 06:33:56;;;;;;;2.30;0.50;;;6.80;99.90;;;;;;5116241;28;20563;-58
2022/11/22 06:36:26;;;;;;;0.50;0.30;;;6.70;99.90;;;;;;5114240;28;20483;-58
2022/11/22 06:38:53;;;;;;;0.70;0.40;;;6.70;99.90;;;;;;5114349;28;20452;-58
2022/11/22 06:41:21;;;;;;;1.00;0.40;;;6.70;99.90;;;;;;5114216;28;20455;-59
2022/11/22 06:43:50;;;;;;;0.70;0.30;;;6.80;99.90;;;;;;5114128;28;20788;-58
2022/11/22 06:46:18;;;;;;;0.50;0.20;;;6.80;99.90;;;;;;5114920;28;20445;-59
2022/11/22 06:48:45;;;;;;;0.77;0.30;;;6.80;99.90;;;;;;5115304;28;20531;-58
2022/11/22 06:51:14;;;;;;;1.40;0.20;;;6.80;99.90;;;;;;5114538;28;20527;-59
2022/11/22 06:53:42;;;;;;;0.60;0.30;;;6.80;99.90;;;;;;5112607;28;20564;-58
2022/11/22 06:56:10;;;;;;;0.97;0.20;;;6.70;99.90;;;;;;5115492;28;20535;-58
2022/11/22 06:58:37;;;;;;;3.63;0.30;;;6.80;99.90;;;;;;5115179;28;20452;-58
2022/11/22 07:01:06;;;;;;;0.90;0.40;;;6.80;99.90;;;;;;5114250;28;20451;-58
2022/11/22 07:03:35;;;;;;;1.13;0.40;;;6.80;99.90;;;;;;5095355;28;20678;-58
2022/11/22 07:06:02;;;;;;;1.07;0.40;;;6.80;99.90;;;;;;5093990;28;20533;-58
2022/11/22 07:08:29;;;;;;;0.80;0.30;;;6.80;99.90;;;;;;5092628;28;20547;-59
2022/11/22 07:11:02;;;;;;;1.20;0.40;;;6.70;99.90;;;;;;5094887;28;20480;-58
2022/11/22 07:13:29;;;;;;;1.77;0.40;;;6.60;99.90;;;;;;5093553;28;20464;-57
2022/11/22 07:15:56;;;;;;;1.00;0.30;;;6.60;99.90;;;;;;5094486;28;20448;-58
2022/11/22 07:18:23;;;;;;;0.97;0.30;;;6.60;99.90;;;;;;5093986;28;20552;-58
2022/11/22 07:20:50;;;;;;;1.30;0.20;;;6.50;99.90;;;;;;5093837;28;20738;-57
2022/11/22 07:23:17;;;;;;;0.80;0.30;;;6.50;99.90;;;;;;5113198;28;20464;-58
2022/11/22 07:25:44;;;;;;;1.60;0.37;;;6.50;99.90;;;;;;5115400;28;20447;-56
2022/11/22 07:28:13;;;;;;;0.80;0.30;;;6.50;99.90;;;;;;5113810;28;20491;-59
2022/11/22 07:30:40;;;;;;;2.20;0.40;;;6.40;99.90;;;;;;5109006;28;20547;-57
2022/11/22 07:33:07;;;;;;;1.73;0.40;;;6.50;99.90;;;;;;5106739;28;20905;-58
2022/11/22 07:35:34;;;;;;;0.60;0.40;;;6.40;99.90;;;;;;5113329;28;20447;-58
2022/11/22 07:38:01;;;;;;;0.70;0.30;;;6.50;99.90;;;;;;5099180;28;20465;-58
2022/11/22 07:40:28;;;;;;;0.83;0.40;;;6.60;99.90;;;;;;5105651;28;20894;-58
2022/11/22 07:42:54;;;;;;;1.63;0.30;;;6.60;99.90;;;;;;5107672;28;20520;-58
2022/11/22 07:45:23;;;;;;;3.27;0.40;;;6.60;99.90;;;;;;5115257;28;20482;-58
2022/11/22 07:47:50;;;;;;;0.73;0.30;;;6.70;99.90;;;;;;5107000;28;20891;-58
2022/11/22 07:50:17;;;;;;;1.10;0.30;;;6.70;99.90;;;;;;5104743;28;20521;-58
2022/11/22 07:52:44;;;;;;;0.60;0.30;;;6.70;99.90;;;;;;5109763;28;20453;-57
2022/11/22 07:55:11;;;;;;;2.40;0.40;;;6.70;99.90;;;;;;5107422;28;20433;-57
2022/11/22 07:57:38;;;;;;;0.97;0.40;;;6.70;99.90;;;;;;5107406;28;20510;-56
2022/11/22 08:00:06;;;;;;;1.60;0.50;;;6.70;99.90;;;;;;5109666;28;20443;-56
2022/11/22 08:02:36;;;;;;;2.00;0.30;;;6.80;99.90;;;;;;5102875;28;20927;-57
2022/11/22 08:05:03;;;;;;;1.53;0.40;;;6.80;99.90;;;;;;5112325;28;20476;-56
2022/11/22 08:07:30;;;;;;;0.80;0.30;;;6.80;99.90;;;;;;5115312;28;20972;-56
2022/11/22 08:09:56;;;;;;;1.53;0.40;;;6.80;99.90;;;;;;5104861;28;20468;-57
2022/11/22 08:12:23;;;;;;;0.70;0.47;;;6.90;99.90;;;;;;5106856;28;20445;-58
2022/11/22 08:14:50;;;;;;;3.33;0.40;;;6.90;99.90;;;;;;5102648;28;21121;-57
2022/11/22 08:17:17;;;;;;;1.73;0.40;;;6.90;99.90;;;;;;5102390;28;20538;-56
2022/11/22 08:19:45;;;;;;;1.30;0.40;;;6.90;99.90;;;;;;5103570;28;20475;-58
2022/11/22 08:22:12;;;;;;;1.20;0.40;;;7.00;99.90;;;;;;5113208;28;21010;-57
2022/11/22 08:24:39;;;;;;;0.77;0.40;;;7.00;99.90;;;;;;5100978;28;20559;-57
2022/11/22 08:27:06;;;;;;;7.60;0.40;;;6.90;99.90;;;;;;5108218;28;20450;-57
2022/11/22 08:29:33;;;;;;;1.07;0.40;;;6.90;99.90;;;;;;5104225;28;20459;-59
2022/11/22 08:32:00;;;;;;;0.63;0.40;;;6.90;99.90;;;;;;5105614;28;20456;-57
2022/11/22 08:34:27;;;;;;;1.43;0.40;;;7.00;99.90;;;;;;5101228;28;20438;-57
2022/11/22 08:36:55;;;;;;;0.90;0.40;;;7.00;99.90;;;;;;5109540;28;20462;-57
2022/11/22 08:39:22;;;;;;;1.97;0.37;;;7.10;99.90;;;;;;5110149;28;20564;-57
2022/11/22 08:41:49;;;;;;;0.70;0.30;;;7.10;99.90;;;;;;5106684;28;20760;-58
2022/11/22 08:44:16;;;;;;;1.67;0.50;;;7.10;99.90;;;;;;5101518;28;20563;-58
2022/11/22 08:46:43;;;;;;;0.90;0.40;;;7.10;99.90;;;;;;5093910;28;20462;-58
2022/11/22 08:49:10;;;;;;;0.60;0.43;;;7.20;99.90;;;;;;5099954;28;20222;-57
2022/11/22 08:51:43;;;;;;;;;;;7.30;99.90;;;;;;5102970;28;20309;-58
2022/11/22 08:54:11;;;;;;;0.93;0.53;;;7.30;99.90;;;;;;5102512;28;20441;-54
2022/11/22 08:56:38;;;;;;;1.60;0.50;;;7.30;99.90;;;;;;5115247;28;20482;-53
2022/11/22 08:59:05;;;;;;;1.07;0.40;;;7.40;99.90;;;;;;5109398;28;20198;-55
2022/11/22 09:01:33;;;;;;;1.30;0.37;;;7.40;99.90;;;;;;5097993;28;20453;-54
2022/11/22 09:03:59;;;;;;;0.50;0.30;;;7.40;99.90;;;;;;5109316;28;20506;-50
2022/11/22 09:06:26;;;;;;;3.70;0.33;;;7.40;99.90;;;;;;5100516;28;20478;-52
2022/11/22 09:08:53;;;;;;;0.80;0.40;;;7.50;99.90;;;;;;5095142;28;20595;-51
2022/11/22 09:11:21;;;;;;;2.20;0.47;;;7.60;99.90;;;;;;5096730;28;20765;-52
2022/11/22 09:13:48;;;;;;;0.60;0.30;;;7.80;99.90;;;;;;5105011;28;20449;-53
2022/11/22 09:16:17;;;;;;;3.17;0.40;;;7.90;99.90;;;;;;5109753;28;20551;-54
2022/11/22 09:18:44;;;;;;;0.93;0.30;;;7.80;99.90;;;;;;5112614;28;20819;-54
2022/11/22 09:21:14;;;;;;;1.87;0.40;;;7.80;99.90;;;;;;5114511;28;20456;-53
2022/11/22 09:23:42;;;;;;;0.60;0.40;;;7.70;99.90;;;;;;5114713;28;20476;-54
2022/11/22 09:26:11;;;;;;;0.80;0.37;;;7.70;99.90;;;;;;5113451;28;20460;-51
2022/11/22 09:28:39;;;;;;;2.10;0.40;;;7.70;99.90;;;;;;5113624;28;20910;-49
2022/11/22 09:31:08;;;;;;;4.00;0.60;;;7.70;99.90;;;;;;5113726;28;20785;-51
2022/11/22 09:33:36;;;;;;;1.10;0.40;;;7.70;99.90;;;;;;5112077;28;20903;-54
2022/11/22 09:36:05;;;;;;;0.57;0.37;;;7.70;99.90;;;;;;5113566;28;20463;-54
2022/11/22 09:38:32;;;;;;;0.60;0.40;;;7.80;99.90;;;;;;5091407;28;20848;-51
2022/11/22 09:41:02;;;;;;;2.97;0.60;;;7.90;99.90;;;;;;5098341;28;20461;-47
2022/11/22 09:43:43;;;;;;;1.60;0.50;;;7.90;99.90;;;;;;5114298;28;20939;-57
2022/11/22 09:46:22;;;;;;;2.20;0.50;;;7.90;99.90;;;;;;5114848;28;20539;-56
2022/11/22 09:49:12;;;;;;;0.93;0.40;;;8.00;99.90;;;;;;5114261;28;20545;-55
2022/11/22 09:51:44;;;;;;;0.60;0.30;;;8.00;99.90;;;;;;5107198;28;20448;-56
2022/11/22 09:54:14;;;;;;;1.33;0.40;;;8.00;99.90;;;;;;5114099;28;20480;-55
2022/11/22 09:56:42;;;;;;;0.90;0.40;;;8.10;99.90;;;;;;5115192;28;20900;-52
2022/11/22 09:59:15;;;;;;;1.83;0.30;;;8.10;99.90;;;;;;5113865;28;20517;-56
2022/11/22 10:01:46;;;;;;;0.57;0.30;;;8.10;99.90;;;;;;5113039;28;20453;-57
2022/11/22 10:04:17;;;;;;;2.00;0.40;;;8.20;99.90;;;;;;5112051;28;20476;-56
2022/11/22 10:06:48;;;;;;;1.90;0.53;;;8.10;99.90;;;;;;5115202;28;20543;-53
2022/11/22 10:09:26;;;;;;;1.47;0.47;;;8.10;99.90;;;;;;5113838;28;20462;-56
2022/11/22 10:11:57;;;;;;;0.70;0.30;;;8.10;99.90;;;;;;5113852;28;20559;-55
2022/11/22 10:14:35;;;;;;;1.13;0.50;;;8.10;99.90;;;;;;5115764;28;20523;-51
2022/11/22 10:17:10;;;;;;;1.33;0.40;;;8.20;99.90;;;;;;5114316;28;20461;-53
2022/11/22 10:19:44;;;;;;;2.97;0.40;;;8.30;99.90;;;;;;5110705;28;20574;-54
2022/11/22 10:22:12;;;;;;;1.00;0.50;;;8.40;99.90;;;;;;5113042;28;20473;-52
2022/11/22 10:24:39;;;;;;;2.20;0.40;;;8.40;90.10;;;;;;5111167;28;20484;-53
2022/11/22 10:27:11;;;;;;;1.90;0.37;;;8.40;97.60;;;;;;5113514;28;20456;-57
2022/11/22 10:29:45;;;;;;;0.93;0.30;;;8.30;93.40;;;;;;5112318;28;20452;-56
2022/11/22 10:32:16;;;;;;;1.30;0.40;;;8.30;99.70;;;;;;5098428;28;20463;-56
2022/11/22 10:34:57;;;;;;;0.97;0.40;;;8.20;95.80;;;;;;5115264;28;20544;-56
2022/11/22 10:37:31;;;;;;;0.90;0.30;;;8.30;99.90;;;;;;5113437;28;20460;-58
2022/11/22 10:40:08;;;;;;;1.33;0.40;;;8.30;97.60;;;;;;5099174;28;20448;-56
2022/11/22 10:43:16;;;;;;;2.00;0.33;;;8.30;97.00;;;;;;5102215;28;20491;-58
2022/11/22 10:45:49;;;;;;;2.07;0.40;;;8.30;84.00;;;;;;5110706;28;20599;-57
2022/11/22 10:48:24;;;;;;;0.90;0.30;;;8.30;92.00;;;;;;5113840;28;20808;-57
2022/11/22 10:51:00;;;;;;;0.50;0.30;;;8.40;95.10;;;;;;5112101;28;20470;-56
2022/11/22 10:53:36;;;;;;;1.00;0.30;;;8.50;71.70;;;;;;5114009;28;20468;-57
2022/11/22 10:56:10;;;;;;;0.80;0.30;;;8.50;70.50;;;;;;5113938;28;20472;-57
2022/11/22 10:58:47;;;;;;;1.33;0.30;;;8.60;38.70;;;;;;5114072;28;20460;-57
2022/11/22 11:01:21;;;;;;;0.60;0.30;;;8.50;17.00;;;;;;5111924;28;20491;-57
2022/11/22 11:03:53;;;;;;;4.40;0.50;;;8.50;47.20;;;;;;5112621;28;20575;-55
2022/11/22 11:06:25;;;;;;;1.97;0.30;;;8.60;33.00;;;;;;5113084;28;20843;-53
2022/11/22 11:08:56;;;;;;;1.73;0.30;;;8.70;63.10;;;;;;5112529;28;20467;-58
2022/11/22 11:11:26;;;;;;;0.70;0.50;;;9.10;1.00;;;;;;5112313;28;20464;-55
2022/11/22 11:13:57;;;;;;;0.43;0.20;;;9.10;1.00;;;;;;5111553;28;20895;-54
2022/11/22 11:16:30;;;;;;;1.63;0.30;;;8.90;1.00;;;;;;5110612;28;20543;-56
2022/11/22 11:19:01;;;;;;;0.87;0.43;;;8.70;1.00;;;;;;5113520;28;20492;-55
2022/11/22 11:21:28;;;;;;;1.03;0.30;;;8.70;1.00;;;;;;5111403;28;20461;-55
2022/11/22 11:23:55;;;;;;;1.40;0.37;;;8.70;1.00;;;;;;5112896;28;20553;-55
2022/11/22 11:26:26;;;;;;;0.57;0.30;;;8.70;1.00;;;;;;5113559;28;20486;-55
2022/11/22 11:29:28;;;;;;;1.63;0.30;;;8.80;1.00;;;;;;5113008;28;20468;-56
2022/11/22 11:32:11;;;;;;;1.93;0.30;;;8.80;1.00;;;;;;5096860;28;21131;-56
2022/11/22 11:34:40;;;;;;;1.53;0.40;;;8.90;1.00;;;;;;5104442;28;20750;-58
2022/11/22 11:37:18;;;;;;;0.80;0.33;;;9.00;1.00;;;;;;5111779;28;20464;-53
2022/11/22 11:39:46;;;;;;;3.10;0.30;;;9.00;1.00;;;;;;5112803;28;20460;-54
2022/11/22 11:42:29;;;;;;;2.33;0.30;;;8.90;1.00;;;;;;5113696;28;20444;-54
2022/11/22 11:45:21;;;;;;;2.10;0.30;;;8.90;1.00;;;;;;5113477;28;20472;-55
2022/11/22 11:47:49;;;;;;;1.80;0.33;;;9.20;1.00;;;;;;5112175;28;20472;-55
2022/11/22 11:50:19;;;;;;;3.97;0.23;;;9.20;1.00;;;;;;5110765;28;20555;-54
2022/11/22 11:52:51;;;;;;;0.70;0.10;;;9.20;1.00;;;;;;5101605;28;20455;-54
2022/11/22 11:55:18;;;;;;;1.03;0.20;;;9.10;1.00;;;;;;5111645;28;20452;-53
2022/11/22 11:57:45;;;;;;;0.93;0.20;;;9.10;1.00;;;;;;5112365;28;20766;-55
2022/11/22 12:00:20;;;;;;;0.37;0.20;;;9.10;1.00;;;;;;5110625;28;20775;-58
2022/11/22 12:02:50;;;;;;;2.83;0.30;;;9.10;1.00;;;;;;5107345;28;20468;-54
2022/11/22 12:05:26;;;;;;;1.70;0.30;;;9.30;1.00;;;;;;5112309;28;20476;-53
2022/11/22 12:07:53;;;;;;;1.50;0.37;;;9.20;1.00;;;;;;5114366;28;20714;-55
2022/11/22 12:10:31;;;;;;;2.13;0.40;;;9.10;1.00;;;;;;5112543;28;20440;-55
2022/11/22 12:13:01;;;;;;;1.03;0.30;;;9.00;1.00;;;;;;5112298;28;20573;-57
2022/11/22 12:15:36;;;;;;;0.70;0.33;;;9.00;1.00;;;;;;5113227;28;20440;-55
2022/11/22 12:18:19;;;;;;;1.13;0.20;;;8.90;1.00;;;;;;5112981;28;20832;-56
2022/11/22 12:20:51;;;;;;;1.13;0.20;;;8.90;1.00;;;;;;5112533;28;20482;-55
2022/11/22 12:23:24;;;;;;;1.37;0.20;;;9.00;1.00;;;;;;5114638;28;20545;-55
2022/11/22 12:25:53;;;;;;;2.17;0.20;;;9.00;1.00;;;;;;5115262;28;20871;-58
2022/11/22 12:28:23;;;;;;;0.93;0.13;;;8.90;99.90;;;;;;5116522;28;20497;-56
2022/11/22 12:30:56;;;;;;;3.90;0.40;;;9.00;1.00;;;;;;5117561;28;20437;-57
2022/11/22 12:33:29;;;;;;;2.13;0.20;;;9.00;1.00;;;;;;5115702;28;20547;-61
2022/11/22 12:35:57;;;;;;;1.00;0.30;;;9.00;1.00;;;;;;5115179;28;20819;-60
2022/11/22 12:38:27;;;;;;;0.53;0.20;;;9.30;1.00;;;;;;5116350;28;20551;-60
2022/11/22 12:40:57;;;;;;;0.80;0.33;;;9.40;99.90;;;;;;5116537;28;20436;-60
2022/11/22 12:43:26;;;;;;;1.53;0.27;;;9.40;99.90;;;;;;5117022;28;20451;-60
2022/11/22 12:45:57;;;;;;;0.93;0.30;;;9.30;99.90;;;;;;5116525;28;20523;-60
2022/11/22 12:48:30;;;;;;;3.03;0.30;;;9.20;99.90;;;;;;5116064;28;20455;-60
2022/11/22 12:51:03;;;;;;;2.30;0.30;;;9.10;1.00;;;;;;5116060;28;20449;-60
2022/11/22 12:53:33;;;;;;;0.93;0.30;;;9.10;1.00;;;;;;5113274;28;20514;-59
2022/11/22 12:56:08;;;;;;;0.53;0.20;;;9.10;1.00;;;;;;5115729;28;20942;-60
2022/11/22 12:58:40;;;;;;;0.50;0.20;;;9.00;1.00;;;;;;5114256;28;20555;-59
2022/11/22 13:01:13;;;;;;;1.50;0.20;;;8.90;1.00;;;;;;5113875;28;20739;-60
2022/11/22 13:03:50;;;;;;;6.00;0.20;;;9.00;1.00;;;;;;5114581;28;20835;-60
2022/11/22 13:06:21;;;;;;;1.23;0.23;;;8.90;99.90;;;;;;5115066;28;20931;-60
2022/11/22 13:08:56;;;;;;;1.17;0.20;;;8.90;1.00;;;;;;5115094;28;20492;-59
2022/11/22 13:11:28;;;;;;;1.70;0.27;;;9.00;1.00;;;;;;5114817;28;20504;-59
2022/11/22 13:14:03;;;;;;;0.70;0.20;;;8.90;99.90;;;;;;5115986;28;20455;-60
2022/11/22 13:16:29;;;;;;;1.43;0.20;;;8.90;1.00;;;;;;5115595;28;20475;-60
2022/11/22 13:19:00;;;;;;;0.63;0.20;;;8.90;1.00;;;;;;5116030;28;20480;-60